»·PEaware :: SWA1984 KSTL-KDAL

SWA1984 :: KSTL-KDAL

FLIGHT INFORMATION

Flight Status: Arrived
Operator:
Southwest Airlines
More flights by this operator :: More flights under this callsign
Pilot: Drew Leevy (13237)
Aircraft: BOEING 737-300
(B733)
More flights by this aircraft type
Origin: KSTL Lambert-St Louis Intl
United States
Destination: KDAL Dallas Love
United States
More flights between these airports :: More routes between these airports
Route: JAHNY3 MAP FSM CAMAL CRIKT1
File this flight plan on PilotEdge
Remarks: Sample flight plan
Altitude:
(Current/Filed)
36,000ft
Speed:
(Current/Filed)
115kts
Departed: 06-Jun-17 08:15 PM
Arrived: 06-Jun-17 09:31 PM
Distance/Time
Traveled:
474nm/1:16
Distance/Time
To Go:
Arrived

Flight Plot

Page will automatically refresh every two minutes.

Flight plan parsing failed; only flown route is shown


Map Options




Map Legend


Flown Route
Filed Route
Departure Airport
Arrival Airport
Navaid (VOR, NDB)
Fix

Horizontal Profiles

Position Reports

Time Latitude Longitude Heading Altitude Ground
Speed
06-Jun-17 20:16 38.560148 -90.447827 237 12785ft 334kts
06-Jun-17 20:17 38.509610 -90.551266 240 15502ft 367kts
06-Jun-17 20:18 38.454835 -90.662938 240 18373ft 384kts
06-Jun-17 20:19 38.397207 -90.780224 240 21093ft 399kts
06-Jun-17 20:20 38.337124 -90.901847 240 23478ft 416kts
06-Jun-17 20:21 38.266167 -91.020262 224 25770ft 435kts
06-Jun-17 20:22 38.176366 -91.125906 226 27893ft 447kts
06-Jun-17 20:23 38.086210 -91.233049 227 30568ft 439kts
06-Jun-17 20:24 37.998205 -91.337343 228 32909ft 432kts
06-Jun-17 20:25 37.911600 -91.439608 228 35026ft 424kts
06-Jun-17 20:26 37.826421 -91.539511 228 36101ft 428kts
06-Jun-17 20:27 37.740118 -91.640689 228 36050ft 423kts
06-Jun-17 20:28 37.654240 -91.741369 227 36063ft 426kts
06-Jun-17 20:29 37.567984 -91.841873 227 36057ft 424kts
06-Jun-17 20:30 37.481304 -91.942537 227 36061ft 425kts
06-Jun-17 20:31 37.394819 -92.042640 227 36058ft 424kts
06-Jun-17 20:32 37.307820 -92.143008 227 36059ft 424kts
06-Jun-17 20:33 37.221095 -92.242732 227 36059ft 424kts
06-Jun-17 20:34 37.134733 -92.341710 227 36060ft 424kts
06-Jun-17 20:35 37.047693 -92.441148 227 36059ft 424kts
06-Jun-17 20:36 36.961005 -92.539857 227 36058ft 423kts
06-Jun-17 20:37 36.874868 -92.637485 227 36033ft 424kts
06-Jun-17 20:38 36.789041 -92.734633 227 36066ft 429kts
06-Jun-17 20:39 36.701187 -92.833703 227 36025ft 425kts
06-Jun-17 20:40 36.613300 -92.932518 227 36064ft 428kts
06-Jun-17 20:41 36.525579 -93.030825 227 36094ft 428kts
06-Jun-17 20:42 36.437559 -93.129125 227 36082ft 426kts
06-Jun-17 20:43 36.350101 -93.226513 227 36070ft 426kts
06-Jun-17 20:44 36.261972 -93.324330 227 36087ft 426kts
06-Jun-17 20:45 36.174136 -93.421513 227 36073ft 426kts
06-Jun-17 20:46 36.085979 -93.518748 227 36057ft 425kts
06-Jun-17 20:47 35.997910 -93.615579 227 36060ft 426kts
06-Jun-17 20:48 35.910618 -93.711479 226 36034ft 425kts
06-Jun-17 20:49 35.824039 -93.805794 226 36033ft 426kts
06-Jun-17 20:50 35.735682 -93.902010 226 36028ft 422kts
06-Jun-17 20:51 35.646947 -93.998392 226 36040ft 426kts
06-Jun-17 20:52 35.558888 -94.093735 226 35975ft 426kts
06-Jun-17 20:53 35.470162 -94.189496 226 35948ft 424kts
06-Jun-17 20:54 35.380768 -94.283240 217 35945ft 430kts
06-Jun-17 20:55 35.279263 -94.360099 218 35952ft 430kts
06-Jun-17 20:56 35.179765 -94.440574 218 35951ft 429kts
06-Jun-17 20:57 35.080335 -94.520812 218 35950ft 429kts
06-Jun-17 20:58 34.981317 -94.600483 218 35956ft 429kts
06-Jun-17 20:59 34.884636 -94.678150 218 35933ft 430kts
06-Jun-17 21:00 34.785127 -94.757654 217 35971ft 430kts
06-Jun-17 21:01 34.686279 -94.838600 222 35979ft 427kts
06-Jun-17 21:02 34.594425 -94.928906 223 35977ft 426kts
06-Jun-17 21:03 34.502569 -95.018715 223 35978ft 426kts
06-Jun-17 21:04 34.410585 -95.108360 223 35978ft 425kts
06-Jun-17 21:05 34.318829 -95.197517 223 35949ft 425kts
06-Jun-17 21:06 34.227325 -95.286739 224 35950ft 425kts
06-Jun-17 21:07 34.135929 -95.376541 224 35846ft 427kts
06-Jun-17 21:08 34.043562 -95.467047 223 33920ft 430kts
06-Jun-17 21:09 33.950204 -95.557176 222 30339ft 440kts
06-Jun-17 21:10 33.858153 -95.645127 221 26105ft 455kts
06-Jun-17 21:11 33.770459 -95.729513 221 23326ft 426kts
06-Jun-17 21:12 33.684199 -95.812272 216 21105ft 384kts
06-Jun-17 21:13 33.597357 -95.895288 216 19380ft 418kts
06-Jun-17 21:14 33.506576 -95.981889 220 17685ft 410kts
06-Jun-17 21:15 33.418933 -96.064878 220 15995ft 399kts
06-Jun-17 21:16 33.333458 -96.146982 228 14292ft 390kts
06-Jun-17 21:17 33.289533 -96.259647 250 12622ft 375kts
06-Jun-17 21:18 33.243582 -96.365254 233 11506ft 349kts
06-Jun-17 21:19 33.188458 -96.449056 235 11330ft 301kts
06-Jun-17 21:20 33.112577 -96.488146 195 10259ft 304kts
06-Jun-17 21:21 33.032426 -96.515013 195 8938ft 296kts
06-Jun-17 21:22 32.955022 -96.544301 198 7360ft 291kts
06-Jun-17 21:23 32.885728 -96.572603 197 6721ft 255kts
06-Jun-17 21:24 32.821169 -96.598829 196 5583ft 230kts
06-Jun-17 21:25 32.761800 -96.622949 196 4093ft 225kts
06-Jun-17 21:26 32.707593 -96.645920 213 3476ft 186kts
06-Jun-17 21:27 32.699287 -96.689544 315 2728ft 159kts
06-Jun-17 21:28 32.730694 -96.722342 313 2768ft 146kts
06-Jun-17 21:29 32.758842 -96.756356 314 2624ft 145kts
06-Jun-17 21:30 32.788107 -96.790072 317 2126ft 147kts
06-Jun-17 21:31 32.815891 -96.822466 316 1033ft 136kts
06-Jun-17 21:32 32.842454 -96.853138 315 494ft 102kts
06-Jun-17 21:33 32.849271 -96.860130 48 494ft 16kts
06-Jun-17 21:34 32.845980 -96.855466 134 494ft 23kts
06-Jun-17 21:35 32.847049 -96.852041 120 494ft 12kts
06-Jun-17 21:36 32.846426 -96.851811 181 494ft 0kts

Navigation Log

Ident Type
Flight plan parsing failed, navigation log unavailable